Kailua Kona, Hawaii
Current Conditions -  °F | °C
As of 4:53 PM on Saturday 24 Jan 2015 (Local Time) from PHKO Reporting Station
Scattered Clouds Scattered Clouds  
Wind Chill: 80°   Ceiling: Unl
Heat Index: 83°   Visibility: 10mi
Dew Point: 69°   Wind: 18mph
Humidity: 69%   Direction: 350°N
Pressure: 29.95"   Gusts: NA
Location:  19.73°N, 156.05°W
Report Text: PHKO 250253Z 35016KT 10SM SCT040 27/21 A2995 RMK AO2 SLP142 T02670206 53001 $
Loading
Personal Weather Stations






























Interactive Weather Map New forecast layout! Learn more

10-Day Weather Forecast

Advertisements
Track Severe Weather on mobile